Time;durP1;ratioP1;P1;durP2;ratioP2;P2;SDS_P1;SDS_P2;PMS_P1;PMS_P2;Temp;Humidity;BMP_temperature;BMP_pressure;BME280_temperature;BME280_humidity;BME280_pressure;Samples;Min_cycle;Max_cycle;Signal;HPM_P1;HPM_P2
2023/01/02 00:02:15;;;;;;;1.65;0.70;;;;;;;9.59;100.00;100365.52;1764373;80;21468;-54
2023/01/02 00:04:43;;;;;;;1.95;0.90;;;;;;;9.57;100.00;100357.51;1754967;80;23127;-53
2023/01/02 00:07:09;;;;;;;0.82;0.80;;;;;;;9.57;100.00;100357.97;1761184;80;21036;-54
2023/01/02 00:09:36;;;;;;;1.35;0.90;;;;;;;9.56;100.00;100362.93;1760190;80;21087;-54
2023/01/02 00:12:05;;;;;;;2.90;0.80;;;;;;;9.54;100.00;100364.78;1756934;80;20997;-54
2023/01/02 00:14:31;;;;;;;1.02;0.80;;;;;;;9.51;100.00;100364.45;1753605;80;21029;-55
2023/01/02 00:16:59;;;;;;;2.02;0.88;;;;;;;9.49;100.00;100363.61;1758817;80;21840;-53
2023/01/02 00:19:25;;;;;;;0.80;0.68;;;;;;;9.46;100.00;100363.70;1754385;80;21027;-54
2023/01/02 00:21:53;;;;;;;1.35;0.80;;;;;;;9.41;100.00;100362.53;1758578;80;20976;-51
2023/01/02 00:24:19;;;;;;;1.98;0.70;;;;;;;9.39;100.00;100360.82;1755205;80;21492;-53
2023/01/02 00:26:46;;;;;;;0.90;0.70;;;;;;;9.38;100.00;100359.06;1757011;80;21103;-55
2023/01/02 00:29:12;;;;;;;1.42;0.90;;;;;;;9.38;100.00;100351.88;1757134;80;23183;-53
2023/01/02 00:31:39;;;;;;;1.15;0.80;;;;;;;9.37;100.00;100350.11;1757397;80;21548;-53
2023/01/02 00:34:06;;;;;;;2.85;0.93;;;;;;;9.38;100.00;100357.72;1751865;80;21064;-53
2023/01/02 00:36:32;;;;;;;1.57;1.07;;;;;;;9.38;100.00;100357.72;1755252;80;21071;-54
2023/01/02 00:39:00;;;;;;;1.37;0.98;;;;;;;9.36;100.00;100361.79;1763132;80;21051;-53
2023/01/02 00:41:26;;;;;;;2.00;0.90;;;;;;;9.33;100.00;100363.26;1764066;80;22291;-53
2023/01/02 00:43:52;;;;;;;0.90;0.80;;;;;;;9.30;100.00;100366.50;1753088;80;21087;-53
2023/01/02 00:46:19;;;;;;;1.00;0.70;;;;;;;9.28;100.00;100377.75;1755505;80;21002;-56
2023/01/02 00:48:45;;;;;;;1.17;0.80;;;;;;;9.26;100.00;100375.61;1754973;80;21065;-53
2023/01/02 00:51:12;;;;;;;1.77;0.85;;;;;;;9.24;100.00;100373.42;1755589;80;21032;-54
2023/01/02 00:53:39;;;;;;;1.32;0.90;;;;;;;9.24;100.00;100379.68;1759148;80;21926;-53
2023/01/02 00:56:07;;;;;;;1.62;1.00;;;;;;;9.26;100.00;100379.17;1756160;80;21125;-53
2023/01/02 00:58:34;;;;;;;1.60;0.88;;;;;;;9.27;100.00;100370.66;1761722;80;21076;-55
2023/01/02 01:01:02;;;;;;;1.05;0.82;;;;;;;9.26;100.00;100377.83;1753850;80;20985;-52
2023/01/02 01:03:29;;;;;;;1.92;0.90;;;;;;;9.24;100.00;100373.42;1760938;80;21067;-52
2023/01/02 01:05:55;;;;;;;1.30;0.90;;;;;;;9.19;100.00;100373.56;1758333;80;22623;-53
2023/01/02 01:08:22;;;;;;;2.10;0.90;;;;;;;9.14;100.00;100371.50;1759827;80;21583;-54
2023/01/02 01:10:50;;;;;;;2.02;1.02;;;;;;;9.11;100.00;100375.61;1754798;80;21106;-56
2023/01/02 01:13:17;;;;;;;2.15;1.00;;;;;;;9.08;100.00;100386.02;1757538;80;21068;-55
2023/01/02 01:15:44;;;;;;;1.57;1.10;;;;;;;9.07;100.00;100377.55;1757391;80;21537;-56
2023/01/02 01:18:11;;;;;;;1.05;0.95;;;;;;;9.06;100.00;100379.81;1753074;80;22414;-53
2023/01/02 01:20:38;;;;;;;1.32;0.70;;;;;;;9.08;100.00;100375.73;1753696;80;21207;-55
2023/01/02 01:23:04;;;;;;;1.35;0.90;;;;;;;9.08;100.00;100379.30;1762001;80;20961;-53
2023/01/02 01:25:32;;;;;;;1.40;1.05;;;;;;;9.08;100.00;100372.59;1758503;80;21057;-54
2023/01/02 01:27:59;;;;;;;1.10;1.00;;;;;;;9.09;100.00;100381.06;1755849;80;21502;-53
2023/01/02 01:30:26;;;;;;;1.65;0.90;;;;;;;9.09;100.00;100380.19;1754744;80;21826;-54
2023/01/02 01:32:54;;;;;;;1.37;1.27;;;;;;;9.07;100.00;100376.20;1756015;80;21060;-53
2023/01/02 01:35:21;;;;;;;1.50;0.90;;;;;;;9.05;100.00;100378.51;1760211;80;21399;-52
2023/01/02 01:37:47;;;;;;;1.17;0.80;;;;;;;9.01;100.00;100380.89;1753782;80;21051;-53
2023/01/02 01:40:15;;;;;;;1.95;0.85;;;;;;;8.97;100.00;100378.76;1759575;80;21151;-53
2023/01/02 01:42:41;;;;;;;1.15;0.78;;;;;;;8.94;100.00;100376.16;1760128;80;21830;-54
2023/01/02 01:45:14;;;;;;;1.37;0.90;;;;;;;8.93;100.00;100369.03;1758650;80;21037;-54
2023/01/02 01:47:50;;;;;;;1.10;0.80;;;;;;;8.93;100.00;100375.73;1722682;81;21057;-54
2023/01/02 01:50:28;;;;;;;2.55;1.00;;;;;;;8.93;100.00;100374.89;1759117;80;21081;-55
2023/01/02 01:53:05;;;;;;;1.17;1.00;;;;;;;8.95;100.00;100380.61;1727822;81;21072;-55
2023/01/02 01:55:40;;;;;;;2.70;0.97;;;;;;;8.96;100.00;100381.48;1758043;80;22584;-54
2023/01/02 01:58:19;;;;;;;1.65;0.90;;;;;;;8.95;100.00;100391.80;1760051;80;21032;-54
2023/01/02 02:00:46;;;;;;;1.07;0.90;;;;;;;8.93;100.00;100392.34;1734672;80;21099;-54
2023/01/02 02:03:17;;;;;;;1.30;0.80;;;;;;;8.90;100.00;100397.80;1723151;81;21617;-55
2023/01/02 02:05:43;;;;;;;1.02;0.70;;;;;;;8.87;100.00;100396.08;1761210;80;21544;-54
2023/01/02 02:08:26;;;;;;;1.60;0.90;;;;;;;8.84;100.00;100388.60;1760479;80;21841;-54
2023/01/02 02:10:52;;;;;;;1.72;0.90;;;;;;;8.82;100.00;100387.30;1678262;81;21201;-54
2023/01/02 02:13:19;;;;;;;0.98;0.70;;;;;;;8.83;100.00;100390.87;1764413;80;21040;-54
2023/01/02 02:16:11;;;;;;;0.93;0.80;;;;;;;8.83;100.00;100390.87;1759552;80;21073;-54
2023/01/02 02:18:52;;;;;;;2.00;1.17;;;;;;;8.83;100.00;100386.37;1768319;78;20973;-55
2023/01/02 02:21:50;;;;;;;1.10;0.98;;;;;;;8.82;100.00;100389.98;1769595;78;21772;-55
2023/01/02 02:24:58;;;;;;;6.28;1.22;;;;;;;8.80;100.00;100399.00;1776939;78;21119;-56
2023/01/02 02:28:06;;;;;;;1.00;0.90;;;;;;;8.78;100.00;100403.53;1713167;82;21060;-56
2023/01/02 02:30:46;;;;;;;1.90;1.12;;;;;;;8.73;100.00;100401.00;1772243;78;21071;-56
2023/01/02 02:33:58;;;;;;;2.10;0.88;;;;;;;8.68;100.00;100398.91;1775347;78;21518;-56
2023/01/02 02:37:01;;;;;;;4.30;1.17;;;;;;;8.63;100.00;100405.77;1774581;78;21836;-55
2023/01/02 02:39:51;;;;;;;2.45;0.90;;;;;;;8.59;100.00;100406.77;1772226;78;21044;-54
2023/01/02 02:42:40;;;;;;;1.07;0.90;;;;;;;8.57;100.00;100408.64;1771024;78;21036;-56
2023/01/02 02:45:15;;;;;;;1.10;0.88;;;;;;;8.57;100.00;100408.64;1769205;78;21366;-55
2023/01/02 02:47:50;;;;;;;3.83;1.27;;;;;;;8.59;100.00;100409.94;1771158;79;21021;-55
2023/01/02 02:50:40;;;;;;;2.35;1.12;;;;;;;8.58;100.00;100420.25;1780526;78;21926;-55
2023/01/02 02:53:22;;;;;;;5.05;1.25;;;;;;;8.58;100.00;100421.59;1768614;78;21079;-55
2023/01/02 02:55:52;;;;;;;1.65;1.05;;;;;;;8.54;100.00;100432.87;1775453;79;21056;-56
2023/01/02 02:58:19;;;;;;;1.77;1.15;;;;;;;8.49;100.00;100437.50;1772121;78;21052;-55
2023/01/02 03:00:45;;;;;;;3.12;1.00;;;;;;;8.45;100.00;100436.27;1767419;79;21056;-55
2023/01/02 03:03:19;;;;;;;1.45;0.82;;;;;;;8.42;100.00;100445.28;1770705;78;23294;-55
2023/01/02 03:06:00;;;;;;;3.17;0.95;;;;;;;8.39;100.00;100447.19;1773228;79;21075;-55
2023/01/02 03:09:09;;;;;;;1.55;0.80;;;;;;;8.37;100.00;100450.37;1771874;79;21041;-56
2023/01/02 03:12:04;;;;;;;1.22;0.80;;;;;;;8.39;100.00;100452.55;1745934;80;21505;-55
2023/01/02 03:14:39;;;;;;;2.58;1.12;;;;;;;8.35;100.00;100451.28;1752832;80;21538;-55
2023/01/02 03:17:08;;;;;;;;;;;;;;;8.34;100.00;100450.86;1770321;78;21776;-55
2023/01/02 03:19:43;;;;;;;1.95;1.17;;;;;;;8.33;100.00;100439.75;1776575;79;21533;-55
2023/01/02 03:22:16;;;;;;;2.15;1.22;;;;;;;8.33;100.00;100453.62;1776448;79;21506;-56
2023/01/02 03:24:43;;;;;;;2.37;1.10;;;;;;;8.33;100.00;100442.43;1772857;79;21072;-55
2023/01/02 03:27:13;;;;;;;1.65;1.00;;;;;;;8.31;100.00;100443.38;1773815;79;21115;-55
2023/01/02 03:29:43;;;;;;;2.75;1.77;;;;;;;8.30;100.00;100445.15;1772332;79;21881;-55
2023/01/02 03:32:14;;;;;;;3.20;1.50;;;;;;;8.27;100.00;100438.52;1776044;79;21052;-56
2023/01/02 03:34:41;;;;;;;1.77;1.30;;;;;;;8.27;100.00;100439.86;1771001;78;21104;-55
2023/01/02 03:37:12;;;;;;;2.90;1.30;;;;;;;8.25;100.00;100446.22;1769946;79;21028;-55
2023/01/02 03:39:45;;;;;;;1.90;1.12;;;;;;;8.24;100.00;100437.28;1773554;78;21104;-55
2023/01/02 03:42:22;;;;;;;5.00;1.30;;;;;;;8.25;100.00;100437.67;1774978;79;21387;-55
2023/01/02 03:45:00;;;;;;;1.77;1.00;;;;;;;8.25;100.00;100440.36;1779603;79;21048;-55
2023/01/02 03:47:46;;;;;;;1.75;1.20;;;;;;;8.25;100.00;100448.41;1768496;79;21277;-55
2023/01/02 03:50:23;;;;;;;2.22;1.15;;;;;;;8.27;100.00;100451.93;1775905;78;21099;-55
2023/01/02 03:52:50;;;;;;;3.42;1.65;;;;;;;8.26;100.00;100450.16;1745840;79;20999;-55
2023/01/02 03:55:17;;;;;;;2.55;1.05;;;;;;;8.25;100.00;100453.77;1769564;79;21861;-55
2023/01/02 03:57:58;;;;;;;1.45;1.10;;;;;;;8.22;100.00;100452.99;1773202;79;21095;-56
2023/01/02 04:00:30;;;;;;;1.25;1.00;;;;;;;8.19;100.00;100461.98;1777987;79;21021;-55
2023/01/02 04:03:10;;;;;;;1.17;0.90;;;;;;;8.15;100.00;100456.77;1777710;79;21096;-54
2023/01/02 04:05:54;;;;;;;3.47;0.95;;;;;;;8.14;100.00;100467.07;1777376;79;21647;-56
2023/01/02 04:08:27;;;;;;;1.45;1.05;;;;;;;8.14;100.00;100463.05;1775379;79;21828;-55
2023/01/02 04:10:56;;;;;;;1.40;1.00;;;;;;;8.12;100.00;100467.11;1767785;79;21402;-55
2023/01/02 04:13:40;;;;;;;1.35;1.20;;;;;;;8.12;100.00;100469.78;1745357;79;21461;-55
2023/01/02 04:16:13;;;;;;;3.55;0.95;;;;;;;8.12;100.00;100467.11;1775518;79;21012;-55
2023/01/02 04:18:43;;;;;;;1.90;0.72;;;;;;;8.13;100.00;100474.23;1729170;81;21032;-55
2023/01/02 04:21:14;;;;;;;1.07;0.90;;;;;;;8.15;100.00;100483.12;1746736;80;21769;-55
2023/01/02 04:23:58;;;;;;;2.05;1.20;;;;;;;8.15;100.00;100479.11;1767736;79;21758;-55
2023/01/02 04:26:37;;;;;;;1.22;1.12;;;;;;;8.17;100.00;100480.38;1712992;81;21573;-55
2023/01/02 04:29:05;;;;;;;1.80;1.17;;;;;;;8.16;100.00;100487.57;1750951;80;21025;-55
2023/01/02 04:32:05;;;;;;;1.60;1.30;;;;;;;8.14;100.00;100489.41;1747427;80;21332;-55
2023/01/02 04:34:32;;;;;;;3.75;1.20;;;;;;;8.12;100.00;100493.04;1762100;79;21861;-55
2023/01/02 04:36:59;;;;;;;1.52;1.27;;;;;;;8.10;100.00;100509.62;1751129;80;21432;-55
2023/01/02 04:39:25;;;;;;;2.00;1.20;;;;;;;8.07;100.00;100515.97;1770310;79;21088;-55
2023/01/02 04:41:52;;;;;;;1.30;1.00;;;;;;;8.06;100.00;100514.66;1729176;81;21052;-55
2023/01/02 04:44:18;;;;;;;1.30;1.20;;;;;;;8.06;100.00;100514.20;1762607;79;21171;-55
2023/01/02 04:46:45;;;;;;;1.60;1.30;;;;;;;8.08;100.00;100520.38;1716254;81;21982;-55
2023/01/02 04:49:11;;;;;;;2.17;1.30;;;;;;;8.10;100.00;100517.66;1777064;79;21034;-55
2023/01/02 04:51:38;;;;;;;2.52;1.10;;;;;;;8.09;100.00;100522.14;1747357;80;21048;-55
2023/01/02 04:54:04;;;;;;;3.67;1.50;;;;;;;8.11;100.00;100521.66;1724094;81;21053;-55
2023/01/02 04:56:31;;;;;;;2.55;1.00;;;;;;;8.11;100.00;100522.99;1768630;79;21536;-55
2023/01/02 04:58:57;;;;;;;1.40;1.20;;;;;;;8.12;100.00;100526.09;1719420;81;22066;-55
2023/01/02 05:01:24;;;;;;;1.37;1.15;;;;;;;8.11;100.00;100522.99;1749668;80;21036;-55
2023/01/02 05:03:51;;;;;;;3.05;1.70;;;;;;;8.10;100.00;100530.61;1769174;79;21076;-55
2023/01/02 05:06:18;;;;;;;1.50;1.40;;;;;;;8.09;100.00;100535.55;1751535;80;21048;-55
2023/01/02 05:08:45;;;;;;;2.75;1.45;;;;;;;8.07;100.00;100535.20;1773681;79;21076;-55
2023/01/02 05:11:15;;;;;;;1.80;1.40;;;;;;;8.02;100.00;100537.97;1747970;80;21837;-55
2023/01/02 05:13:42;;;;;;;6.20;1.72;;;;;;;7.99;100.00;100550.98;1771142;79;21120;-55
2023/01/02 05:16:08;;;;;;;2.15;1.47;;;;;;;7.95;100.00;100549.78;1727870;81;21052;-55
2023/01/02 05:18:35;;;;;;;1.82;1.27;;;;;;;7.92;100.00;100555.20;1779468;78;21036;-55
2023/01/02 05:21:05;;;;;;;1.37;1.20;;;;;;;7.89;100.00;100555.30;1730642;81;21104;-55
2023/01/02 05:23:50;;;;;;;1.47;1.37;;;;;;;7.88;100.00;100561.58;1734619;80;21758;-55
2023/01/02 05:26:17;;;;;;;1.80;1.12;;;;;;;7.86;100.00;100562.95;1737207;80;22438;-55
2023/01/02 05:28:43;;;;;;;2.80;1.35;;;;;;;7.86;100.00;100558.05;1780364;78;21040;-55
2023/01/02 05:31:10;;;;;;;3.22;1.32;;;;;;;7.86;100.00;100566.09;1774810;78;21739;-56
2023/01/02 05:33:36;;;;;;;2.50;1.90;;;;;;;7.87;100.00;100570.53;1780363;78;21049;-56
2023/01/02 05:36:05;;;;;;;2.02;1.82;;;;;;;7.85;100.00;100569.68;1778424;78;21819;-55
2023/01/02 05:38:34;;;;;;;2.60;1.95;;;;;;;7.83;100.00;100576.41;1777385;78;21582;-56
2023/01/02 05:41:06;;;;;;;4.15;1.77;;;;;;;7.81;100.00;100572.03;1775416;78;21095;-55
2023/01/02 05:43:35;;;;;;;2.40;1.80;;;;;;;7.78;100.00;100574.77;1774579;78;21040;-55
2023/01/02 05:46:14;;;;;;;1.75;1.65;;;;;;;7.77;100.00;100577.02;1780152;78;21103;-55
2023/01/02 05:48:40;;;;;;;2.02;1.47;;;;;;;7.74;100.00;100579.80;1782157;78;22129;-55
2023/01/02 05:51:09;;;;;;;3.05;1.25;;;;;;;7.71;100.00;100578.52;1782048;78;21036;-55
2023/01/02 05:53:37;;;;;;;2.92;2.10;;;;;;;7.68;100.00;100582.59;1773488;78;21397;-55
2023/01/02 05:56:14;;;;;;;1.60;1.20;;;;;;;7.65;100.00;100574.20;1773797;79;20989;-55
2023/01/02 05:58:42;;;;;;;2.40;1.30;;;;;;;7.66;100.00;100575.05;1773854;78;21093;-55
2023/01/02 06:01:12;;;;;;;6.20;1.70;;;;;;;7.64;100.00;100568.41;1778446;78;21902;-55
2023/01/02 06:03:39;;;;;;;2.62;1.45;;;;;;;7.63;100.00;100568.44;1746001;80;21080;-55
2023/01/02 06:06:08;;;;;;;1.92;1.40;;;;;;;7.63;100.00;100567.98;1707491;82;21056;-55
2023/01/02 06:08:36;;;;;;;2.72;1.40;;;;;;;7.65;100.00;100571.52;1730233;80;21131;-55
2023/01/02 06:11:05;;;;;;;3.20;1.57;;;;;;;7.65;100.00;100572.86;1731799;80;21064;-55
2023/01/02 06:13:33;;;;;;;3.52;1.32;;;;;;;7.65;100.00;100570.17;1730118;80;22489;-55
2023/01/02 06:16:01;;;;;;;3.35;1.90;;;;;;;7.66;100.00;100574.59;1730401;81;21401;-55
2023/01/02 06:18:30;;;;;;;5.50;2.62;;;;;;;7.66;100.00;100568.34;1741864;80;21612;-55
2023/01/02 06:21:12;;;;;;;3.05;1.70;;;;;;;7.64;100.00;100568.87;1707268;80;21474;-55
2023/01/02 06:23:39;;;;;;;3.52;3.15;;;;;;;7.61;100.00;100573.83;1732679;80;21357;-55
2023/01/02 06:26:11;;;;;;;2.37;2.08;;;;;;;7.59;100.00;100572.52;1778981;78;21938;-56
2023/01/02 06:28:38;;;;;;;1.75;1.50;;;;;;;7.59;100.00;100575.20;1769283;78;21463;-55
2023/01/02 06:31:06;;;;;;;2.62;1.60;;;;;;;7.57;100.00;100579.70;1767727;78;21009;-55
2023/01/02 06:33:34;;;;;;;2.58;1.62;;;;;;;7.57;100.00;100584.21;1772269;78;21602;-56
2023/01/02 06:36:04;;;;;;;2.30;1.75;;;;;;;7.57;100.00;100582.38;1777272;78;21024;-56
2023/01/02 06:38:30;;;;;;;1.45;1.30;;;;;;;7.58;100.00;100584.14;1766170;78;21785;-56
2023/01/02 06:40:59;;;;;;;6.33;2.12;;;;;;;7.60;100.00;100578.76;1773368;78;21037;-56
2023/01/02 06:43:25;;;;;;;3.02;1.60;;;;;;;7.63;100.00;100581.84;1767984;78;21092;-56
2023/01/02 06:45:52;;;;;;;3.70;1.62;;;;;;;7.65;100.00;100589.39;1772952;78;21088;-55
2023/01/02 06:48:20;;;;;;;2.72;1.57;;;;;;;7.68;100.00;100594.66;1770826;78;21548;-55
2023/01/02 06:50:46;;;;;;;2.17;1.40;;;;;;;7.70;100.00;100599.53;1780212;78;21816;-55
2023/01/02 06:53:13;;;;;;;2.37;1.72;;;;;;;7.73;100.00;100599.02;1776938;78;21037;-55
2023/01/02 06:55:42;;;;;;;4.35;2.35;;;;;;;7.77;100.00;100605.16;1776078;78;21056;-55
2023/01/02 06:58:09;;;;;;;3.75;3.45;;;;;;;7.79;100.00;100604.22;1750583;78;21032;-55
2023/01/02 07:00:35;;;;;;;6.28;4.37;;;;;;;7.82;100.00;100607.30;1772890;78;21040;-55
2023/01/02 07:05:44;;;;;;;7.17;3.77;;;;;;;7.87;100.00;100578.11;1866195;75;23404;-55
2023/01/02 07:08:11;;;;;;;3.22;2.40;;;;;;;7.86;100.00;100606.29;1832990;75;21416;-56
2023/01/02 07:10:39;;;;;;;2.58;2.37;;;;;;;7.88;100.00;100620.09;1834757;77;21015;-56
2023/01/02 07:13:06;;;;;;;3.40;2.20;;;;;;;7.92;100.00;100614.17;1843046;76;21072;-55
2023/01/02 07:15:32;;;;;;;6.75;2.77;;;;;;;7.93;100.00;100616.83;1845130;77;21439;-56
2023/01/02 07:17:59;;;;;;;2.42;2.22;;;;;;;7.98;100.00;100624.33;1827507;77;21052;-56
2023/01/02 07:20:25;;;;;;;2.33;1.70;;;;;;;8.01;100.00;100630.05;1822004;77;21023;-55
2023/01/02 07:22:52;;;;;;;3.35;2.33;;;;;;;8.06;100.00;100635.31;1822157;77;21177;-55
2023/01/02 07:25:19;;;;;;;2.65;2.20;;;;;;;8.10;100.00;100639.21;1821538;77;21641;-55
2023/01/02 07:27:46;;;;;;;1.85;1.72;;;;;;;8.15;100.00;100637.32;1829047;77;20990;-55
2023/01/02 07:30:13;;;;;;;4.97;2.47;;;;;;;8.20;100.00;100646.13;1816517;77;21049;-56
2023/01/02 07:32:42;;;;;;;4.85;2.10;;;;;;;8.26;100.00;100644.63;1822899;77;21029;-56
2023/01/02 07:35:09;;;;;;;5.30;2.00;;;;;;;8.31;100.00;100649.47;1823336;77;23475;-56
2023/01/02 07:37:36;;;;;;;4.35;2.17;;;;;;;8.38;100.00;100649.31;1827528;77;20995;-56
2023/01/02 07:40:03;;;;;;;2.83;1.82;;;;;;;8.43;100.00;100660.79;1824677;77;21013;-56
2023/01/02 07:42:30;;;;;;;3.25;1.55;;;;;;;8.47;100.00;100656.67;1822822;77;21023;-56
2023/01/02 07:44:56;;;;;;;3.40;2.10;;;;;;;8.54;100.00;100661.41;1820058;77;21333;-55
2023/01/02 07:47:23;;;;;;;3.17;1.57;;;;;;;8.58;100.00;100658.63;1823398;77;22168;-56
2023/01/02 07:49:49;;;;;;;3.95;2.00;;;;;;;8.61;100.00;100662.55;1819786;77;21077;-55
2023/01/02 07:52:16;;;;;;;2.58;1.77;;;;;;;8.68;100.00;100664.61;1821882;76;21682;-55
2023/01/02 07:54:42;;;;;;;3.42;1.90;;;;;;;8.75;100.00;100661.33;1821357;77;21023;-56
2023/01/02 07:57:09;;;;;;;3.52;1.55;;;;;;;8.82;100.00;100658.90;1775779;78;21396;-56
2023/01/02 07:59:36;;;;;;;3.08;2.05;;;;;;;8.91;100.00;100672.08;1791988;78;21818;-56
2023/01/02 08:02:02;;;;;;;3.62;2.25;;;;;;;8.98;100.00;100673.21;1772812;78;21176;-56
2023/01/02 08:04:29;;;;;;;4.15;2.25;;;;;;;9.05;100.00;100668.55;1760106;78;21035;-55
2023/01/02 08:06:55;;;;;;;2.90;2.58;;;;;;;9.11;100.00;100666.56;1769708;78;21021;-56
2023/01/02 08:09:22;;;;;;;2.72;2.52;;;;;;;9.16;100.00;100669.14;1773962;78;21038;-56
2023/01/02 08:11:48;;;;;;;4.50;2.52;;;;;;;9.21;100.00;100670.34;1762623;80;21714;-55
2023/01/02 08:14:16;;;;;;;4.25;2.17;;;;;;;9.23;100.00;100667.16;1765611;79;21400;-56
2023/01/02 08:16:42;;;;;;;3.20;2.35;;;;;;;9.24;100.00;100663.09;1759622;79;21110;-55
2023/01/02 08:19:08;;;;;;;3.22;2.27;;;;;;;9.28;100.00;100663.41;1768263;79;21657;-56
2023/01/02 08:21:35;;;;;;;3.98;3.02;;;;;;;9.31;100.00;100661.09;1766265;79;21068;-56
2023/01/02 08:24:02;;;;;;;3.65;2.62;;;;;;;9.35;100.00;100658.30;1765468;79;21837;-56
2023/01/02 08:26:28;;;;;;;3.67;2.83;;;;;;;9.38;100.00;100659.99;1760793;79;21078;-56
2023/01/02 08:28:55;;;;;;;2.55;2.35;;;;;;;9.40;100.00;100660.84;1766353;79;21033;-56
2023/01/02 08:31:21;;;;;;;3.10;2.75;;;;;;;9.42;100.00;100669.74;1759607;79;21073;-56
2023/01/02 08:33:48;;;;;;;3.62;2.98;;;;;;;9.45;100.00;100669.62;1765192;79;21743;-56
2023/01/02 08:36:14;;;;;;;2.62;2.17;;;;;;;9.48;100.00;100672.24;1762902;79;21908;-56
2023/01/02 08:38:41;;;;;;;3.72;1.95;;;;;;;9.49;100.00;100672.20;1758944;79;21731;-56
2023/01/02 08:41:08;;;;;;;3.08;2.08;;;;;;;9.53;100.00;100679.69;1762452;79;21731;-56
2023/01/02 08:43:35;;;;;;;5.30;2.52;;;;;;;9.56;100.00;100676.92;1763286;79;21304;-56
2023/01/02 08:46:04;;;;;;;4.05;2.70;;;;;;;9.61;100.00;100674.97;1769007;79;21050;-56
2023/01/02 08:48:32;;;;;;;2.60;2.15;;;;;;;9.65;100.00;100675.31;1770523;79;22619;-56
2023/01/02 08:50:58;;;;;;;2.70;2.47;;;;;;;9.71;100.00;100675.58;1767834;79;21038;-56
2023/01/02 08:53:25;;;;;;;2.85;2.65;;;;;;;9.75;100.00;100683.53;1758639;79;21352;-56
2023/01/02 08:55:51;;;;;;;3.30;2.45;;;;;;;9.78;100.00;100671.81;1767117;79;21244;-56
2023/01/02 08:58:18;;;;;;;5.90;3.30;;;;;;;9.84;100.00;100671.15;1779067;78;21037;-56
2023/01/02 09:00:44;;;;;;;6.03;5.47;;;;;;;9.88;100.00;100675.95;1767415;79;22896;-56
2023/01/02 09:03:11;;;;;;;9.53;6.92;;;;;;;9.91;100.00;100668.27;1764681;79;21033;-56
2023/01/02 09:05:37;;;;;;;6.85;6.30;;;;;;;9.94;100.00;100665.48;1766488;78;21069;-56
2023/01/02 09:08:04;;;;;;;8.30;5.95;;;;;;;9.97;100.00;100666.72;1766658;78;21050;-56
2023/01/02 09:10:31;;;;;;;6.12;5.62;;;;;;;9.99;100.00;100659.48;1766079;79;21037;-56
2023/01/02 09:12:58;;;;;;;6.37;5.35;;;;;;;10.04;100.00;100656.17;1766619;78;21839;-56
2023/01/02 09:15:24;;;;;;;3.87;3.67;;;;;;;10.10;100.00;100661.39;1761035;78;21045;-56
2023/01/02 09:17:50;;;;;;;4.30;3.90;;;;;;;10.13;100.00;100663.50;1767664;80;21196;-56
2023/01/02 09:20:18;;;;;;;5.47;4.50;;;;;;;10.17;100.00;100657.56;1768929;80;21571;-56
2023/01/02 09:22:44;;;;;;;6.22;5.62;;;;;;;10.20;100.00;100656.16;1775616;78;21056;-57
2023/01/02 09:25:12;;;;;;;4.58;3.87;;;;;;;10.23;100.00;100655.58;1754824;79;21943;-56
2023/01/02 09:27:39;;;;;;;6.10;4.28;;;;;;;10.25;100.00;100660.92;1755584;79;21043;-56
2023/01/02 09:30:06;;;;;;;6.20;3.95;;;;;;;10.26;100.00;100658.65;1764075;79;21088;-57
2023/01/02 09:32:33;;;;;;;7.08;5.55;;;;;;;10.29;100.00;100659.91;1760279;79;21084;-56
2023/01/02 09:34:59;;;;;;;8.18;6.83;;;;;;;10.29;100.00;100654.52;1761826;79;21101;-56
2023/01/02 09:37:27;;;;;;;6.87;6.22;;;;;;;10.28;100.00;100659.95;1778481;78;21781;-57
2023/01/02 09:39:53;;;;;;;7.08;5.97;;;;;;;10.30;100.00;100661.64;1768362;79;21046;-56
2023/01/02 09:42:19;;;;;;;5.85;5.35;;;;;;;10.33;100.00;100658.86;1769249;78;21049;-56
2023/01/02 09:44:50;;;;;;;6.50;5.58;;;;;;;10.36;100.00;100657.42;1772634;78;21037;-56
2023/01/02 09:47:19;;;;;;;7.12;6.37;;;;;;;10.37;100.00;100652.92;1765115;79;21071;-56
2023/01/02 09:49:50;;;;;;;8.63;5.20;;;;;;;10.37;100.00;100647.54;1766538;78;22535;-56
2023/01/02 09:52:29;;;;;;;4.00;3.30;;;;;;;10.36;100.00;100645.31;1771544;78;21085;-56
2023/01/02 09:54:56;;;;;;;4.35;3.62;;;;;;;10.34;100.00;100643.13;1768553;78;21025;-56
2023/01/02 09:58:59;;;;;;;5.07;3.27;;;;;;;10.31;100.00;100614.96;1847482;74;22629;-56
2023/01/02 10:01:43;;;;;;;3.65;3.12;;;;;;;10.33;100.00;100643.17;1848588;75;21344;-56
2023/01/02 10:04:21;;;;;;;4.85;4.10;;;;;;;10.36;100.00;100638.58;1804540;76;21842;-56
2023/01/02 10:07:16;;;;;;;7.45;6.15;;;;;;;10.44;100.00;100638.32;1849356;75;21030;-56
2023/01/02 10:09:58;;;;;;;16.30;6.97;;;;;;;10.48;100.00;100632.77;1845031;75;21214;-56
2023/01/02 10:12:58;;;;;;;10.08;7.08;;;;;;;10.54;100.00;100622.28;1845208;75;21037;-56
2023/01/02 10:15:28;;;;;;;10.82;9.38;;;;;;;10.59;100.00;100621.64;1847132;75;21037;-56
2023/01/02 10:18:24;;;;;;;11.48;9.38;;;;;;;10.63;100.00;100626.00;1817188;75;22842;-56
2023/01/02 10:20:57;;;;;;;11.28;8.40;;;;;;;10.66;100.00;100624.99;1816168;77;21050;-56
2023/01/02 10:23:28;;;;;;;7.33;5.83;;;;;;;10.67;100.00;100623.60;1814378;77;21041;-56
2023/01/02 10:25:59;;;;;;;6.95;4.87;;;;;;;10.71;100.00;100623.92;1810035;77;21072;-56
2023/01/02 10:28:56;;;;;;;3.37;3.08;;;;;;;10.75;100.00;100625.56;1813175;77;21070;-56
2023/01/02 10:31:45;;;;;;;5.60;2.55;;;;;;;10.80;100.00;100611.95;1814879;77;21793;-55
2023/01/02 10:34:18;;;;;;;4.58;2.87;;;;;;;10.84;100.00;100610.42;1785816;77;21374;-56
2023/01/02 10:36:46;;;;;;;2.95;2.42;;;;;;;10.89;100.00;100601.70;1696387;81;28522;-55
2023/01/02 10:39:20;;;;;;;3.42;3.10;;;;;;;10.93;100.00;100601.13;1746101;80;21113;-55
2023/01/02 10:41:51;;;;;;;4.37;3.05;;;;;;;10.96;100.00;100598.34;1747285;80;21056;-56
2023/01/02 10:44:36;;;;;;;6.37;5.47;;;;;;;10.98;100.00;100599.14;1739737;80;21823;-55
2023/01/02 10:47:36;;;;;;;5.08;4.35;;;;;;;11.02;100.00;100598.57;1739599;80;21084;-55
2023/01/02 10:50:23;;;;;;;5.97;4.28;;;;;;;11.06;100.00;100597.54;1739638;80;21051;-55
2023/01/02 10:52:53;;;;;;;5.15;4.03;;;;;;;11.10;100.00;100585.70;1698382;80;21094;-55
2023/01/02 10:55:42;;;;;;;4.40;2.65;;;;;;;11.15;100.00;100586.39;1721320;80;21108;-55
2023/01/02 10:58:22;;;;;;;2.90;2.30;;;;;;;11.19;100.00;100586.70;1745894;80;21936;-55
2023/01/02 11:01:12;;;;;;;4.00;2.58;;;;;;;11.25;100.00;100583.77;1743857;80;21078;-54
2023/01/02 11:03:38;;;;;;;5.58;2.62;;;;;;;11.40;100.00;100589.06;1746196;80;21061;-56
2023/01/02 11:06:05;;;;;;;4.15;3.10;;;;;;;11.40;100.00;100589.06;1744313;80;21055;-56
2023/01/02 11:08:37;;;;;;;4.08;2.05;;;;;;;11.50;100.00;100589.09;1691988;81;21499;-56
2023/01/02 11:11:13;;;;;;;3.75;2.12;;;;;;;11.50;100.00;100589.09;1743714;80;22211;-56
2023/01/02 11:13:45;;;;;;;2.87;2.02;;;;;;;11.54;100.00;100579.97;1737102;80;21056;-56
2023/01/02 11:16:13;;;;;;;4.70;2.47;;;;;;;11.56;100.00;100574.94;1746673;80;21029;-56
2023/01/02 11:18:44;;;;;;;2.27;1.70;;;;;;;11.57;100.00;100571.27;1715901;81;21039;-55
2023/01/02 11:21:07;;;;;;;5.25;1.92;;;;;;;11.60;100.00;100582.41;1775127;79;22369;-56
2023/01/02 11:23:42;;;;;;;4.70;2.58;;;;;;;11.61;100.00;100594.96;1743812;80;21545;-56
2023/01/02 11:26:22;;;;;;;3.37;2.12;;;;;;;11.60;100.00;100595.42;1772462;79;21097;-56
2023/01/02 11:28:49;;;;;;;4.30;2.22;;;;;;;11.63;100.00;100594.44;1777863;79;20971;-56
2023/01/02 11:31:15;;;;;;;5.10;2.67;;;;;;;11.66;100.00;100596.99;1746987;80;21006;-56
2023/01/02 11:33:43;;;;;;;4.28;2.80;;;;;;;11.68;100.00;100598.70;1747743;80;21687;-56
2023/01/02 11:36:16;;;;;;;3.65;3.30;;;;;;;11.71;100.00;100603.11;1751641;80;21837;-56
2023/01/02 11:38:57;;;;;;;3.50;2.75;;;;;;;11.74;100.00;100601.61;1770892;79;21053;-56
2023/01/02 11:44:24;;;;;;;3.67;3.37;;;;;;;11.74;100.00;100594.88;1771651;79;21053;-56
2023/01/02 11:46:51;;;;;;;6.28;3.40;;;;;;;11.75;100.00;100596.20;1768972;79;21053;-56
2023/01/02 11:49:20;;;;;;;4.35;3.42;;;;;;;11.77;100.00;100591.22;1775526;79;21763;-56
2023/01/02 11:51:57;;;;;;;6.80;2.37;;;;;;;11.77;100.00;100581.31;1776346;79;21029;-56